Fairmont, Minnesota
Current Conditions -  °F | °C
As of 6:35 AM on Monday 22 Dec 2014 (Local Time) from KFRM Reporting Station
Overcast Overcast  
Wind Chill: 28°   Ceiling: 200
Heat Index: 37°   Visibility: 1.2mi
Dew Point: 36°   Wind: 17mph
Humidity: 93%   Direction: 150°SSE
Pressure: 29.58"   Gusts: NA
Location:  43.65°N, 94.46°W
Report Text: KFRM 221235Z AUTO 15015KT 1 1/4SM OVC002 03/02 A2958 RMK AO1
Loading
Personal Weather Stations






























Interactive Weather Map New forecast layout! Learn more

10-Day Weather Forecast

Advertisements
Track Severe Weather on mobile